sensor_id;sensor_type;location;lat;lon;timestamp;pressure;altitude;pressure_sealevel;temperature;humidity
2192;BME280;1102;49.718;11.902;2022-12-18T00:03:45;97544.94;;;-13.41;100.00
2192;BME280;1102;49.718;11.902;2022-12-18T00:06:13;97530.84;;;-13.71;100.00
2192;BME280;1102;49.718;11.902;2022-12-18T00:08:41;97533.03;;;-13.58;100.00
2192;BME280;1102;49.718;11.902;2022-12-18T00:11:11;97558.75;;;-13.44;100.00
2192;BME280;1102;49.718;11.902;2022-12-18T00:13:38;97518.16;;;-13.71;100.00
2192;BME280;1102;49.718;11.902;2022-12-18T00:16:08;97549.59;;;-13.54;100.00
2192;BME280;1102;49.718;11.902;2022-12-18T00:18:36;97549.59;;;-13.36;100.00
2192;BME280;1102;49.718;11.902;2022-12-18T00:21:06;97553.38;;;-13.40;100.00
2192;BME280;1102;49.718;11.902;2022-12-18T00:23:34;97572.66;;;-13.12;100.00
2192;BME280;1102;49.718;11.902;2022-12-18T00:26:05;97545.09;;;-13.43;100.00
2192;BME280;1102;49.718;11.902;2022-12-18T00:28:33;97567.91;;;-13.33;100.00
2192;BME280;1102;49.718;11.902;2022-12-18T00:31:08;97573.34;;;-13.28;100.00
2192;BME280;1102;49.718;11.902;2022-12-18T00:33:36;97538.53;;;-13.27;100.00
2192;BME280;1102;49.718;11.902;2022-12-18T00:36:06;97510.66;;;-13.55;100.00
2192;BME280;1102;49.718;11.902;2022-12-18T00:38:34;97588.91;;;-12.87;100.00
2192;BME280;1102;49.718;11.902;2022-12-18T00:41:01;97569.09;;;-13.01;100.00
2192;BME280;1102;49.718;11.902;2022-12-18T00:43:28;97567.97;;;-12.81;100.00
2192;BME280;1102;49.718;11.902;2022-12-18T00:45:55;97573.22;;;-12.57;100.00
2192;BME280;1102;49.718;11.902;2022-12-18T00:48:22;97560.84;;;-12.51;100.00
2192;BME280;1102;49.718;11.902;2022-12-18T00:50:49;97582.50;;;-12.47;100.00
2192;BME280;1102;49.718;11.902;2022-12-18T00:53:16;97586.88;;;-12.32;100.00
2192;BME280;1102;49.718;11.902;2022-12-18T00:55:44;97523.09;;;-12.56;100.00
2192;BME280;1102;49.718;11.902;2022-12-18T00:58:13;97586.44;;;-11.93;100.00
2192;BME280;1102;49.718;11.902;2022-12-18T01:00:41;97573.03;;;-11.95;100.00
2192;BME280;1102;49.718;11.902;2022-12-18T01:03:12;97585.22;;;-11.81;100.00
2192;BME280;1102;49.718;11.902;2022-12-18T01:05:41;97577.03;;;-12.01;100.00
2192;BME280;1102;49.718;11.902;2022-12-18T01:08:08;97581.50;;;-11.95;100.00
2192;BME280;1102;49.718;11.902;2022-12-18T01:10:35;97592.69;;;-11.87;100.00
2192;BME280;1102;49.718;11.902;2022-12-18T01:13:02;97575.75;;;-11.97;100.00
2192;BME280;1102;49.718;11.902;2022-12-18T01:15:29;97543.53;;;-12.06;100.00
2192;BME280;1102;49.718;11.902;2022-12-18T01:17:55;97555.88;;;-11.85;100.00
2192;BME280;1102;49.718;11.902;2022-12-18T01:20:25;97565.75;;;-11.82;100.00
2192;BME280;1102;49.718;11.902;2022-12-18T01:22:54;97559.56;;;-11.71;100.00
2192;BME280;1102;49.718;11.902;2022-12-18T01:25:21;97532.16;;;-11.85;100.00
2192;BME280;1102;49.718;11.902;2022-12-18T01:27:49;97567.84;;;-11.69;100.00
2192;BME280;1102;49.718;11.902;2022-12-18T01:30:16;97603.78;;;-11.38;100.00
2192;BME280;1102;49.718;11.902;2022-12-18T01:32:44;97598.69;;;-11.30;100.00
2192;BME280;1102;49.718;11.902;2022-12-18T01:35:11;97588.81;;;-11.33;100.00
2192;BME280;1102;49.718;11.902;2022-12-18T01:37:37;97577.28;;;-11.61;100.00
2192;BME280;1102;49.718;11.902;2022-12-18T01:40:05;97593.41;;;-11.37;100.00
2192;BME280;1102;49.718;11.902;2022-12-18T01:42:32;97597.91;;;-11.22;100.00
2192;BME280;1102;49.718;11.902;2022-12-18T01:50:10;97581.31;;;-11.10;100.00
2192;BME280;1102;49.718;11.902;2022-12-18T01:52:43;97574.63;;;-11.19;100.00
2192;BME280;1102;49.718;11.902;2022-12-18T01:55:12;97587.88;;;-11.16;100.00
2192;BME280;1102;49.718;11.902;2022-12-18T01:57:40;97584.50;;;-11.24;100.00
2192;BME280;1102;49.718;11.902;2022-12-18T02:00:13;97586.59;;;-11.12;100.00
2192;BME280;1102;49.718;11.902;2022-12-18T02:02:43;97574.16;;;-11.07;100.00
2192;BME280;1102;49.718;11.902;2022-12-18T02:05:14;97581.34;;;-10.94;100.00
2192;BME280;1102;49.718;11.902;2022-12-18T02:08:17;97581.03;;;-10.91;100.00
2192;BME280;1102;49.718;11.902;2022-12-18T02:11:05;97584.69;;;-10.77;100.00
2192;BME280;1102;49.718;11.902;2022-12-18T02:13:42;97570.19;;;-10.93;100.00
2192;BME280;1102;49.718;11.902;2022-12-18T02:16:25;97587.72;;;-10.82;100.00
2192;BME280;1102;49.718;11.902;2022-12-18T02:19:00;97571.44;;;-10.97;100.00
2192;BME280;1102;49.718;11.902;2022-12-18T02:21:57;97587.41;;;-10.70;100.00
2192;BME280;1102;49.718;11.902;2022-12-18T02:27:16;97598.72;;;-10.40;100.00
2192;BME280;1102;49.718;11.902;2022-12-18T02:29:51;97561.38;;;-10.66;100.00
2192;BME280;1102;49.718;11.902;2022-12-18T02:32:34;97584.47;;;-10.43;100.00
2192;BME280;1102;49.718;11.902;2022-12-18T02:35:04;97587.53;;;-10.39;100.00
2192;BME280;1102;49.718;11.902;2022-12-18T02:37:34;97554.69;;;-10.67;100.00
2192;BME280;1102;49.718;11.902;2022-12-18T02:40:05;97546.84;;;-10.65;100.00
2192;BME280;1102;49.718;11.902;2022-12-18T02:42:34;97569.31;;;-10.45;100.00
2192;BME280;1102;49.718;11.902;2022-12-18T02:45:04;97554.53;;;-10.74;100.00
2192;BME280;1102;49.718;11.902;2022-12-18T02:47:37;97592.50;;;-10.70;100.00
2192;BME280;1102;49.718;11.902;2022-12-18T02:50:13;97574.47;;;-10.61;100.00
2192;BME280;1102;49.718;11.902;2022-12-18T02:55:44;97586.28;;;-10.84;100.00
2192;BME280;1102;49.718;11.902;2022-12-18T02:58:18;97568.88;;;-10.97;100.00
2192;BME280;1102;49.718;11.902;2022-12-18T03:01:38;97590.28;;;-10.90;100.00
2192;BME280;1102;49.718;11.902;2022-12-18T03:06:56;97548.00;;;-11.17;100.00
2192;BME280;1102;49.718;11.902;2022-12-18T03:09:31;97549.41;;;-10.98;100.00
2192;BME280;1102;49.718;11.902;2022-12-18T03:15:36;97588.22;;;-10.94;100.00
2192;BME280;1102;49.718;11.902;2022-12-18T03:18:13;97594.28;;;-11.04;100.00
2192;BME280;1102;49.718;11.902;2022-12-18T03:20:44;97585.03;;;-11.05;100.00
2192;BME280;1102;49.718;11.902;2022-12-18T03:23:21;97577.69;;;-10.91;100.00
2192;BME280;1102;49.718;11.902;2022-12-18T03:25:55;97590.59;;;-10.77;100.00
2192;BME280;1102;49.718;11.902;2022-12-18T03:28:34;97558.22;;;-11.17;100.00
2192;BME280;1102;49.718;11.902;2022-12-18T03:31:04;97540.66;;;-11.12;100.00
2192;BME280;1102;49.718;11.902;2022-12-18T03:33:38;97572.41;;;-10.98;100.00
2192;BME280;1102;49.718;11.902;2022-12-18T03:36:08;97585.50;;;-10.93;100.00
2192;BME280;1102;49.718;11.902;2022-12-18T03:38:35;97586.47;;;-10.94;100.00
2192;BME280;1102;49.718;11.902;2022-12-18T03:41:15;97588.84;;;-11.00;100.00
2192;BME280;1102;49.718;11.902;2022-12-18T03:52:58;97593.97;;;-10.92;100.00
2192;BME280;1102;49.718;11.902;2022-12-18T03:55:30;97594.75;;;-10.84;100.00
2192;BME280;1102;49.718;11.902;2022-12-18T03:58:04;97609.13;;;-10.75;100.00
2192;BME280;1102;49.718;11.902;2022-12-18T04:00:50;97607.66;;;-10.69;100.00
2192;BME280;1102;49.718;11.902;2022-12-18T04:03:19;97577.50;;;-11.14;100.00
2192;BME280;1102;49.718;11.902;2022-12-18T04:05:52;97591.88;;;-10.97;100.00
2192;BME280;1102;49.718;11.902;2022-12-18T04:08:21;97601.28;;;-10.97;100.00
2192;BME280;1102;49.718;11.902;2022-12-18T04:10:59;97602.56;;;-10.93;100.00
2192;BME280;1102;49.718;11.902;2022-12-18T04:13:35;97618.34;;;-10.82;100.00
2192;BME280;1102;49.718;11.902;2022-12-18T04:16:07;97617.88;;;-11.01;100.00
2192;BME280;1102;49.718;11.902;2022-12-18T04:18:34;97616.25;;;-11.11;100.00
2192;BME280;1102;49.718;11.902;2022-12-18T04:21:01;97616.44;;;-11.04;100.00
2192;BME280;1102;49.718;11.902;2022-12-18T04:23:28;97578.25;;;-11.38;100.00
2192;BME280;1102;49.718;11.902;2022-12-18T04:25:57;97603.00;;;-11.22;100.00
2192;BME280;1102;49.718;11.902;2022-12-18T04:28:47;97516.66;;;-11.76;100.00
2192;BME280;1102;49.718;11.902;2022-12-18T04:31:14;97620.13;;;-11.07;100.00
2192;BME280;1102;49.718;11.902;2022-12-18T04:33:41;97632.69;;;-11.21;100.00
2192;BME280;1102;49.718;11.902;2022-12-18T04:36:09;97638.69;;;-11.39;100.00
2192;BME280;1102;49.718;11.902;2022-12-18T04:38:36;97641.72;;;-11.35;100.00
2192;BME280;1102;49.718;11.902;2022-12-18T04:41:07;97608.22;;;-11.56;100.00
2192;BME280;1102;49.718;11.902;2022-12-18T04:43:34;97649.56;;;-11.28;100.00
2192;BME280;1102;49.718;11.902;2022-12-18T04:46:05;97636.94;;;-11.38;100.00
2192;BME280;1102;49.718;11.902;2022-12-18T04:48:33;97657.56;;;-11.31;100.00
2192;BME280;1102;49.718;11.902;2022-12-18T04:51:01;97657.72;;;-11.33;100.00
2192;BME280;1102;49.718;11.902;2022-12-18T04:53:28;97625.72;;;-12.04;100.00
2192;BME280;1102;49.718;11.902;2022-12-18T04:56:11;97661.19;;;-11.76;100.00
2192;BME280;1102;49.718;11.902;2022-12-18T04:58:39;97658.84;;;-12.04;100.00
2192;BME280;1102;49.718;11.902;2022-12-18T05:01:06;97644.44;;;-12.21;100.00
2192;BME280;1102;49.718;11.902;2022-12-18T05:03:34;97663.22;;;-11.96;100.00
2192;BME280;1102;49.718;11.902;2022-12-18T05:06:02;97665.13;;;-11.98;100.00
2192;BME280;1102;49.718;11.902;2022-12-18T05:08:29;97662.34;;;-12.13;100.00
2192;BME280;1102;49.718;11.902;2022-12-18T05:11:03;97661.38;;;-12.12;100.00
2192;BME280;1102;49.718;11.902;2022-12-18T05:13:31;97610.38;;;-12.46;100.00
2192;BME280;1102;49.718;11.902;2022-12-18T05:15:57;97637.53;;;-12.29;100.00
2192;BME280;1102;49.718;11.902;2022-12-18T05:18:28;97666.06;;;-11.99;100.00
2192;BME280;1102;49.718;11.902;2022-12-18T05:20:55;97661.53;;;-12.13;100.00
2192;BME280;1102;49.718;11.902;2022-12-18T05:23:23;97678.91;;;-12.09;100.00
2192;BME280;1102;49.718;11.902;2022-12-18T05:25:55;97654.63;;;-12.21;100.00
2192;BME280;1102;49.718;11.902;2022-12-18T05:28:26;97669.72;;;-12.02;100.00
2192;BME280;1102;49.718;11.902;2022-12-18T05:30:57;97631.06;;;-12.23;100.00
2192;BME280;1102;49.718;11.902;2022-12-18T05:33:26;97674.81;;;-12.02;100.00
2192;BME280;1102;49.718;11.902;2022-12-18T05:35:56;97679.72;;;-12.08;100.00
2192;BME280;1102;49.718;11.902;2022-12-18T05:38:24;97652.16;;;-12.05;100.00
2192;BME280;1102;49.718;11.902;2022-12-18T05:40:54;97680.09;;;-11.95;100.00
2192;BME280;1102;49.718;11.902;2022-12-18T05:43:22;97682.34;;;-12.18;100.00
2192;BME280;1102;49.718;11.902;2022-12-18T05:45:50;97681.84;;;-12.21;100.00
2192;BME280;1102;49.718;11.902;2022-12-18T05:48:21;97651.28;;;-12.21;100.00
2192;BME280;1102;49.718;11.902;2022-12-18T05:50:49;97681.91;;;-12.13;100.00
2192;BME280;1102;49.718;11.902;2022-12-18T05:53:18;97683.91;;;-11.99;100.00
2192;BME280;1102;49.718;11.902;2022-12-18T05:55:46;97678.56;;;-11.88;100.00
2192;BME280;1102;49.718;11.902;2022-12-18T05:58:14;97674.22;;;-11.96;100.00
2192;BME280;1102;49.718;11.902;2022-12-18T06:00:45;97677.72;;;-11.88;100.00
2192;BME280;1102;49.718;11.902;2022-12-18T06:03:12;97678.56;;;-11.88;100.00
2192;BME280;1102;49.718;11.902;2022-12-18T06:05:42;97677.31;;;-11.84;100.00
2192;BME280;1102;49.718;11.902;2022-12-18T06:08:10;97655.88;;;-11.99;100.00
2192;BME280;1102;49.718;11.902;2022-12-18T06:10:38;97685.34;;;-11.97;100.00
2192;BME280;1102;49.718;11.902;2022-12-18T06:13:05;97698.66;;;-11.85;100.00
2192;BME280;1102;49.718;11.902;2022-12-18T06:15:32;97691.59;;;-11.91;100.00
2192;BME280;1102;49.718;11.902;2022-12-18T06:18:00;97693.06;;;-12.14;100.00
2192;BME280;1102;49.718;11.902;2022-12-18T06:20:27;97671.63;;;-12.47;100.00
2192;BME280;1102;49.718;11.902;2022-12-18T06:22:59;97687.09;;;-12.23;100.00
2192;BME280;1102;49.718;11.902;2022-12-18T06:25:25;97682.09;;;-12.33;100.00
2192;BME280;1102;49.718;11.902;2022-12-18T06:27:52;97658.75;;;-12.46;100.00
2192;BME280;1102;49.718;11.902;2022-12-18T06:30:19;97663.94;;;-12.56;100.00
2192;BME280;1102;49.718;11.902;2022-12-18T06:32:47;97712.34;;;-12.30;100.00
2192;BME280;1102;49.718;11.902;2022-12-18T06:35:21;97714.72;;;-12.36;100.00
2192;BME280;1102;49.718;11.902;2022-12-18T06:37:48;97672.78;;;-12.42;100.00
2192;BME280;1102;49.718;11.902;2022-12-18T06:40:16;97697.88;;;-12.29;100.00
2192;BME280;1102;49.718;11.902;2022-12-18T06:42:42;97708.13;;;-12.21;100.00
2192;BME280;1102;49.718;11.902;2022-12-18T06:45:09;97694.63;;;-12.39;100.00
2192;BME280;1102;49.718;11.902;2022-12-18T06:47:36;97723.84;;;-12.08;100.00
2192;BME280;1102;49.718;11.902;2022-12-18T06:50:03;97722.38;;;-12.10;100.00
2192;BME280;1102;49.718;11.902;2022-12-18T06:52:31;97729.81;;;-11.91;100.00
2192;BME280;1102;49.718;11.902;2022-12-18T06:54:58;97730.53;;;-11.81;100.00
2192;BME280;1102;49.718;11.902;2022-12-18T06:57:25;97734.59;;;-11.96;100.00
2192;BME280;1102;49.718;11.902;2022-12-18T06:59:51;97727.81;;;-11.87;100.00
2192;BME280;1102;49.718;11.902;2022-12-18T07:02:18;97682.56;;;-12.11;100.00
2192;BME280;1102;49.718;11.902;2022-12-18T07:04:45;97709.59;;;-11.93;100.00
2192;BME280;1102;49.718;11.902;2022-12-18T07:07:11;97722.09;;;-11.81;100.00
2192;BME280;1102;49.718;11.902;2022-12-18T07:09:38;97677.09;;;-11.90;100.00
2192;BME280;1102;49.718;11.902;2022-12-18T07:12:05;97691.56;;;-11.57;100.00
2192;BME280;1102;49.718;11.902;2022-12-18T07:14:33;97709.69;;;-11.68;100.00
2192;BME280;1102;49.718;11.902;2022-12-18T07:17:00;97675.97;;;-11.96;100.00
2192;BME280;1102;49.718;11.902;2022-12-18T07:19:26;97681.28;;;-11.81;100.00
2192;BME280;1102;49.718;11.902;2022-12-18T07:21:54;97704.25;;;-11.73;100.00
2192;BME280;1102;49.718;11.902;2022-12-18T07:24:21;97722.22;;;-11.49;100.00
2192;BME280;1102;49.718;11.902;2022-12-18T07:26:48;97727.19;;;-11.47;100.00
2192;BME280;1102;49.718;11.902;2022-12-18T07:29:14;97733.03;;;-11.21;100.00
2192;BME280;1102;49.718;11.902;2022-12-18T07:31:41;97723.09;;;-11.32;100.00
2192;BME280;1102;49.718;11.902;2022-12-18T07:34:12;97699.78;;;-11.79;100.00
2192;BME280;1102;49.718;11.902;2022-12-18T07:36:40;97716.81;;;-11.80;100.00
2192;BME280;1102;49.718;11.902;2022-12-18T07:39:07;97662.00;;;-11.84;100.00
2192;BME280;1102;49.718;11.902;2022-12-18T07:41:33;97675.22;;;-12.14;100.00
2192;BME280;1102;49.718;11.902;2022-12-18T07:44:10;97675.97;;;-12.22;100.00
2192;BME280;1102;49.718;11.902;2022-12-18T07:46:37;97670.94;;;-12.14;100.00
2192;BME280;1102;49.718;11.902;2022-12-18T07:49:03;97729.00;;;-12.00;100.00
2192;BME280;1102;49.718;11.902;2022-12-18T07:51:30;97698.59;;;-11.93;100.00
2192;BME280;1102;49.718;11.902;2022-12-18T07:53:56;97742.50;;;-11.73;100.00
2192;BME280;1102;49.718;11.902;2022-12-18T07:56:23;97712.19;;;-11.76;100.00
2192;BME280;1102;49.718;11.902;2022-12-18T07:58:56;97753.69;;;-11.66;100.00
2192;BME280;1102;49.718;11.902;2022-12-18T08:01:23;97752.03;;;-11.49;100.00
2192;BME280;1102;49.718;11.902;2022-12-18T08:03:50;97757.13;;;-11.49;100.00
2192;BME280;1102;49.718;11.902;2022-12-18T08:06:18;97756.63;;;-11.53;100.00
2192;BME280;1102;49.718;11.902;2022-12-18T08:08:53;97734.41;;;-11.69;100.00
2192;BME280;1102;49.718;11.902;2022-12-18T08:11:21;97742.75;;;-11.58;100.00
2192;BME280;1102;49.718;11.902;2022-12-18T08:13:48;97763.03;;;-11.49;100.00
2192;BME280;1102;49.718;11.902;2022-12-18T08:16:15;97761.25;;;-11.56;100.00
2192;BME280;1102;49.718;11.902;2022-12-18T08:18:42;97759.66;;;-11.57;100.00
2192;BME280;1102;49.718;11.902;2022-12-18T08:23:42;97738.84;;;-11.71;100.00
2192;BME280;1102;49.718;11.902;2022-12-18T08:26:10;97768.03;;;-11.39;100.00
2192;BME280;1102;49.718;11.902;2022-12-18T08:28:38;97749.09;;;-11.63;100.00
2192;BME280;1102;49.718;11.902;2022-12-18T08:31:05;97767.47;;;-11.51;100.00
2192;BME280;1102;49.718;11.902;2022-12-18T08:33:34;97758.00;;;-11.67;100.00
2192;BME280;1102;49.718;11.902;2022-12-18T08:36:01;97763.38;;;-11.44;100.00
2192;BME280;1102;49.718;11.902;2022-12-18T08:38:28;97729.69;;;-11.55;100.00
2192;BME280;1102;49.718;11.902;2022-12-18T08:40:59;97780.75;;;-11.47;100.00
2192;BME280;1102;49.718;11.902;2022-12-18T08:43:27;97783.31;;;-11.39;100.00
2192;BME280;1102;49.718;11.902;2022-12-18T08:46:12;97785.94;;;-11.23;100.00
2192;BME280;1102;49.718;11.902;2022-12-18T08:48:39;97754.06;;;-11.61;100.00
2192;BME280;1102;49.718;11.902;2022-12-18T08:51:06;97781.78;;;-11.32;100.00
2192;BME280;1102;49.718;11.902;2022-12-18T08:53:33;97787.66;;;-10.97;100.00
2192;BME280;1102;49.718;11.902;2022-12-18T08:56:02;97782.03;;;-10.67;100.00
2192;BME280;1102;49.718;11.902;2022-12-18T08:58:29;97751.91;;;-11.06;100.00
2192;BME280;1102;49.718;11.902;2022-12-18T09:01:03;97751.31;;;-11.34;100.00
2192;BME280;1102;49.718;11.902;2022-12-18T09:03:30;97777.34;;;-11.22;100.00
2192;BME280;1102;49.718;11.902;2022-12-18T09:05:57;97772.91;;;-10.69;100.00
2192;BME280;1102;49.718;11.902;2022-12-18T09:08:24;97766.81;;;-10.68;100.00
2192;BME280;1102;49.718;11.902;2022-12-18T09:10:51;97734.13;;;-10.57;100.00
2192;BME280;1102;49.718;11.902;2022-12-18T09:13:18;97765.13;;;-10.44;100.00
2192;BME280;1102;49.718;11.902;2022-12-18T09:15:52;97714.81;;;-10.59;100.00
2192;BME280;1102;49.718;11.902;2022-12-18T09:18:21;97764.94;;;-10.66;100.00
2192;BME280;1102;49.718;11.902;2022-12-18T09:20:48;97724.06;;;-10.66;100.00
2192;BME280;1102;49.718;11.902;2022-12-18T09:23:16;97732.88;;;-10.36;100.00
2192;BME280;1102;49.718;11.902;2022-12-18T09:25:43;97756.69;;;-10.28;100.00
2192;BME280;1102;49.718;11.902;2022-12-18T09:28:12;97759.38;;;-10.54;100.00
2192;BME280;1102;49.718;11.902;2022-12-18T09:30:42;97730.59;;;-10.56;100.00
2192;BME280;1102;49.718;11.902;2022-12-18T09:33:09;97729.03;;;-10.24;100.00
2192;BME280;1102;49.718;11.902;2022-12-18T09:35:37;97718.47;;;-10.13;100.00
2192;BME280;1102;49.718;11.902;2022-12-18T09:38:04;97708.59;;;-10.40;100.00
2192;BME280;1102;49.718;11.902;2022-12-18T09:40:36;97750.81;;;-9.57;100.00
2192;BME280;1102;49.718;11.902;2022-12-18T09:43:13;97755.97;;;-9.73;100.00
2192;BME280;1102;49.718;11.902;2022-12-18T09:45:44;97762.22;;;-9.84;100.00
2192;BME280;1102;49.718;11.902;2022-12-18T09:48:22;97720.16;;;-9.81;100.00
2192;BME280;1102;49.718;11.902;2022-12-18T09:50:51;97760.28;;;-9.65;100.00
2192;BME280;1102;49.718;11.902;2022-12-18T09:53:24;97756.66;;;-9.87;100.00
2192;BME280;1102;49.718;11.902;2022-12-18T09:55:52;97761.09;;;-9.81;100.00
2192;BME280;1102;49.718;11.902;2022-12-18T10:00:57;97751.19;;;-9.84;100.00
2192;BME280;1102;49.718;11.902;2022-12-18T10:03:23;97716.53;;;-10.11;100.00
2192;BME280;1102;49.718;11.902;2022-12-18T10:06:13;97741.22;;;-9.63;100.00
2192;BME280;1102;49.718;11.902;2022-12-18T10:12:07;97743.66;;;-9.77;100.00
2192;BME280;1102;49.718;11.902;2022-12-18T10:19:34;97741.09;;;-9.77;100.00
2192;BME280;1102;49.718;11.902;2022-12-18T10:24:59;97724.03;;;-9.38;100.00
2192;BME280;1102;49.718;11.902;2022-12-18T10:27:31;97716.97;;;-9.28;100.00
2192;BME280;1102;49.718;11.902;2022-12-18T10:29:59;97708.88;;;-9.08;100.00
2192;BME280;1102;49.718;11.902;2022-12-18T10:32:29;97717.31;;;-9.00;100.00
2192;BME280;1102;49.718;11.902;2022-12-18T10:34:57;97715.38;;;-8.98;100.00
2192;BME280;1102;49.718;11.902;2022-12-18T10:37:29;97719.50;;;-8.88;100.00
2192;BME280;1102;49.718;11.902;2022-12-18T10:40:09;97711.78;;;-8.80;100.00
2192;BME280;1102;49.718;11.902;2022-12-18T10:42:45;97709.47;;;-8.67;100.00
2192;BME280;1102;49.718;11.902;2022-12-18T10:45:16;97704.34;;;-8.67;100.00
2192;BME280;1102;49.718;11.902;2022-12-18T10:47:48;97706.78;;;-8.74;100.00
2192;BME280;1102;49.718;11.902;2022-12-18T10:50:36;97708.47;;;-8.89;100.00
2192;BME280;1102;49.718;11.902;2022-12-18T10:53:26;97711.31;;;-8.84;100.00
2192;BME280;1102;49.718;11.902;2022-12-18T10:55:56;97695.13;;;-8.53;100.00
2192;BME280;1102;49.718;11.902;2022-12-18T11:03:35;97713.44;;;-8.42;100.00
2192;BME280;1102;49.718;11.902;2022-12-18T11:09:20;97722.03;;;-8.57;100.00
2192;BME280;1102;49.718;11.902;2022-12-18T11:12:17;97717.94;;;-8.29;100.00
2192;BME280;1102;49.718;11.902;2022-12-18T11:14:47;97708.78;;;-8.61;100.00
2192;BME280;1102;49.718;11.902;2022-12-18T11:17:35;97717.09;;;-8.36;100.00
2192;BME280;1102;49.718;11.902;2022-12-18T11:20:04;97719.66;;;-8.36;100.00
2192;BME280;1102;49.718;11.902;2022-12-18T11:22:35;97672.88;;;-8.38;100.00
2192;BME280;1102;49.718;11.902;2022-12-18T11:25:07;97678.50;;;-8.28;100.00
2192;BME280;1102;49.718;11.902;2022-12-18T11:30:49;97691.78;;;-7.87;100.00
2192;BME280;1102;49.718;11.902;2022-12-18T11:33:20;97673.53;;;-7.62;100.00
2192;BME280;1102;49.718;11.902;2022-12-18T11:35:53;97713.56;;;-7.24;100.00
2192;BME280;1102;49.718;11.902;2022-12-18T11:38:24;97714.09;;;-7.43;100.00
2192;BME280;1102;49.718;11.902;2022-12-18T11:43:38;97710.06;;;-7.01;100.00
2192;BME280;1102;49.718;11.902;2022-12-18T11:46:11;97713.06;;;-6.98;100.00
2192;BME280;1102;49.718;11.902;2022-12-18T11:49:03;97696.56;;;-7.54;100.00
2192;BME280;1102;49.718;11.902;2022-12-18T11:52:00;97714.50;;;-7.10;100.00
2192;BME280;1102;49.718;11.902;2022-12-18T11:54:29;97714.28;;;-7.30;100.00
2192;BME280;1102;49.718;11.902;2022-12-18T11:57:01;97691.63;;;-7.56;100.00
2192;BME280;1102;49.718;11.902;2022-12-18T12:02:36;97714.00;;;-7.05;100.00
2192;BME280;1102;49.718;11.902;2022-12-18T12:05:24;97706.72;;;-7.02;100.00
2192;BME280;1102;49.718;11.902;2022-12-18T12:16:34;97688.25;;;-7.56;100.00
2192;BME280;1102;49.718;11.902;2022-12-18T12:19:20;97682.84;;;-7.47;100.00
2192;BME280;1102;49.718;11.902;2022-12-18T12:27:20;97665.66;;;-7.31;100.00
2192;BME280;1102;49.718;11.902;2022-12-18T12:40:39;97647.50;;;-7.08;100.00
2192;BME280;1102;49.718;11.902;2022-12-18T12:46:10;97639.78;;;-6.94;100.00
2192;BME280;1102;49.718;11.902;2022-12-18T12:48:51;97644.53;;;-6.69;100.00
2192;BME280;1102;49.718;11.902;2022-12-18T12:51:34;97646.94;;;-6.89;100.00
2192;BME280;1102;49.718;11.902;2022-12-18T12:54:03;97634.16;;;-6.61;100.00
2192;BME280;1102;49.718;11.902;2022-12-18T12:57:03;97632.72;;;-6.42;100.00
2192;BME280;1102;49.718;11.902;2022-12-18T12:59:44;97641.41;;;-6.15;100.00
2192;BME280;1102;49.718;11.902;2022-12-18T13:02:31;97633.63;;;-6.01;100.00
2192;BME280;1102;49.718;11.902;2022-12-18T13:08:02;97644.16;;;-6.23;100.00
2192;BME280;1102;49.718;11.902;2022-12-18T13:10:40;97639.63;;;-6.15;100.00
2192;BME280;1102;49.718;11.902;2022-12-18T13:13:12;97652.91;;;-5.83;100.00
2192;BME280;1102;49.718;11.902;2022-12-18T13:18:20;97665.06;;;-5.71;100.00
2192;BME280;1102;49.718;11.902;2022-12-18T13:25:58;97640.31;;;-5.65;100.00
2192;BME280;1102;49.718;11.902;2022-12-18T13:33:50;97651.06;;;-5.55;100.00
2192;BME280;1102;49.718;11.902;2022-12-18T13:36:37;97658.53;;;-5.73;100.00
2192;BME280;1102;49.718;11.902;2022-12-18T13:39:20;97674.84;;;-5.53;100.00
2192;BME280;1102;49.718;11.902;2022-12-18T13:44:41;97649.63;;;-5.71;100.00
2192;BME280;1102;49.718;11.902;2022-12-18T13:47:31;97655.63;;;-5.98;100.00
2192;BME280;1102;49.718;11.902;2022-12-18T13:49:59;97665.16;;;-6.20;100.00
2192;BME280;1102;49.718;11.902;2022-12-18T13:52:28;97614.38;;;-6.61;100.00
2192;BME280;1102;49.718;11.902;2022-12-18T13:55:01;97651.97;;;-6.38;100.00
2192;BME280;1102;49.718;11.902;2022-12-18T14:02:49;97653.25;;;-6.49;100.00
2192;BME280;1102;49.718;11.902;2022-12-18T14:05:39;97593.56;;;-6.87;100.00
2192;BME280;1102;49.718;11.902;2022-12-18T14:08:13;97667.00;;;-6.57;100.00
2192;BME280;1102;49.718;11.902;2022-12-18T14:10:45;97665.31;;;-6.49;100.00
2192;BME280;1102;49.718;11.902;2022-12-18T14:13:22;97664.91;;;-6.53;100.00
2192;BME280;1102;49.718;11.902;2022-12-18T14:15:50;97667.88;;;-6.49;100.00
2192;BME280;1102;49.718;11.902;2022-12-18T14:20:52;97651.41;;;-6.76;100.00
2192;BME280;1102;49.718;11.902;2022-12-18T14:26:17;97655.22;;;-6.72;100.00
2192;BME280;1102;49.718;11.902;2022-12-18T14:28:45;97589.91;;;-7.35;100.00
2192;BME280;1102;49.718;11.902;2022-12-18T14:31:24;97618.97;;;-7.20;100.00
2192;BME280;1102;49.718;11.902;2022-12-18T14:33:52;97644.53;;;-7.12;100.00
2192;BME280;1102;49.718;11.902;2022-12-18T14:36:25;97600.84;;;-7.48;100.00
2192;BME280;1102;49.718;11.902;2022-12-18T14:38:54;97594.66;;;-7.54;100.00
2192;BME280;1102;49.718;11.902;2022-12-18T14:41:23;97577.78;;;-7.78;100.00
2192;BME280;1102;49.718;11.902;2022-12-18T14:43:52;97647.69;;;-7.31;100.00
2192;BME280;1102;49.718;11.902;2022-12-18T14:46:36;97638.22;;;-7.46;100.00
2192;BME280;1102;49.718;11.902;2022-12-18T14:49:32;97636.78;;;-7.48;100.00
2192;BME280;1102;49.718;11.902;2022-12-18T14:52:01;97529.16;;;-8.15;100.00
2192;BME280;1102;49.718;11.902;2022-12-18T14:54:30;97636.44;;;-7.45;100.00
2192;BME280;1102;49.718;11.902;2022-12-18T14:57:03;97659.19;;;-7.42;100.00
2192;BME280;1102;49.718;11.902;2022-12-18T14:59:31;97636.34;;;-7.52;100.00
2192;BME280;1102;49.718;11.902;2022-12-18T15:04:37;97640.78;;;-7.46;100.00
2192;BME280;1102;49.718;11.902;2022-12-18T15:07:16;97646.91;;;-7.61;100.00
2192;BME280;1102;49.718;11.902;2022-12-18T15:28:38;97647.00;;;-7.84;100.00
2192;BME280;1102;49.718;11.902;2022-12-18T15:31:57;97652.56;;;-7.95;100.00
2192;BME280;1102;49.718;11.902;2022-12-18T15:36:22;97597.56;;;-8.37;100.00
2192;BME280;1102;49.718;11.902;2022-12-18T15:38:54;97571.06;;;-8.67;100.00